createdAt,value
2017-08-31T00:00:08.900Z,96557.28
2017-08-31T00:02:35.090Z,96552.32
2017-08-31T00:05:01.137Z,96549.58
2017-08-31T00:07:27.188Z,96546.44
2017-08-31T00:09:53.222Z,96553.83
2017-08-31T00:12:19.362Z,96555.06
2017-08-31T00:14:45.379Z,96557.95
2017-08-31T00:17:11.422Z,96550.14
2017-08-31T00:19:37.452Z,96547.50
2017-08-31T00:22:03.519Z,96550.14
2017-08-31T00:24:29.533Z,96549.19
2017-08-31T00:26:55.565Z,96542.86
2017-08-31T00:29:21.622Z,96540.11
2017-08-31T00:31:48.357Z,96530.64
2017-08-31T00:34:15.173Z,96539.27
2017-08-31T00:36:41.260Z,96534.20
2017-08-31T00:39:07.269Z,96532.41
2017-08-31T00:41:33.319Z,96527.90
2017-08-31T00:43:59.523Z,96519.66
2017-08-31T00:46:25.607Z,96524.73
2017-08-31T00:48:51.646Z,96527.90
2017-08-31T00:51:17.687Z,96527.90
2017-08-31T00:53:43.797Z,96521.98
2017-08-31T00:56:10.007Z,96526.52
2017-08-31T00:58:36.047Z,96532.54
2017-08-31T01:01:02.100Z,96536.23
2017-08-31T01:03:28.320Z,96537.50
2017-08-31T01:05:54.364Z,96540.77
2017-08-31T01:08:21.042Z,96556.81
2017-08-31T01:10:47.213Z,96564.09
2017-08-31T01:13:13.225Z,96563.67
2017-08-31T01:15:39.356Z,96569.27
2017-08-31T01:18:05.516Z,96574.65
2017-08-31T01:20:31.689Z,96573.28
2017-08-31T01:22:58.149Z,96543.20
2017-08-31T01:25:24.263Z,96538.59
2017-08-31T01:27:50.398Z,96525.89
2017-08-31T01:30:16.559Z,96505.31
2017-08-31T01:32:42.677Z,96487.47
2017-08-31T01:35:08.856Z,96489.27
2017-08-31T01:37:34.969Z,96485.81
2017-08-31T01:40:01.236Z,96485.71
2017-08-31T01:42:27.394Z,96471.98
2017-08-31T01:44:53.549Z,96469.34
2017-08-31T01:47:32.057Z,96457.95
2017-08-31T01:49:58.181Z,96464.81
2017-08-31T01:52:24.313Z,96464.42
2017-08-31T01:54:50.429Z,96463.86
2017-08-31T01:57:16.547Z,96478.14
2017-08-31T01:59:42.677Z,96468.93
2017-08-31T02:02:08.872Z,96464.70
2017-08-31T02:04:35.143Z,96466.61
2017-08-31T02:07:01.261Z,96463.05
2017-08-31T02:09:27.397Z,96452.60
2017-08-31T02:11:53.506Z,96455.77
2017-08-31T02:14:19.591Z,96459.47
2017-08-31T02:16:45.718Z,96468.93
2017-08-31T02:19:11.839Z,96481.84
2017-08-31T02:21:37.983Z,96495.00
2017-08-31T02:24:04.142Z,96492.25
2017-08-31T02:26:30.254Z,96470.30
2017-08-31T02:28:56.350Z,96483.73
2017-08-31T02:31:22.604Z,96503.79
2017-08-31T02:33:48.842Z,96493.77
2017-08-31T02:36:14.990Z,96463.58
2017-08-31T02:38:41.119Z,96480.18
2017-08-31T02:41:07.266Z,96496.64
2017-08-31T02:43:33.384Z,96491.97
2017-08-31T02:45:59.481Z,96475.50
2017-08-31T02:48:25.569Z,96473.32
2017-08-31T02:50:51.810Z,96466.03
2017-08-31T02:53:17.956Z,96458.75
2017-08-31T02:55:44.069Z,96452.45
2017-08-31T02:58:10.204Z,96459.31
2017-08-31T03:00:36.318Z,96487.03
2017-08-31T03:03:02.445Z,96492.53
2017-08-31T03:05:28.660Z,96481.55
2017-08-31T03:07:55.369Z,96460.97
2017-08-31T03:10:21.492Z,96448.34
2017-08-31T03:12:47.611Z,96446.55
2017-08-31T03:15:13.796Z,96451.47
2017-08-31T03:17:39.908Z,96457.95
2017-08-31T03:20:06.054Z,96439.55
2017-08-31T03:22:32.126Z,96450.52
2017-08-31T03:24:58.380Z,96446.97
2017-08-31T03:27:24.522Z,96442.85
2017-08-31T03:29:50.607Z,96447.78
2017-08-31T03:32:16.924Z,96440.11
2017-08-31T03:34:43.072Z,96451.61
2017-08-31T03:37:09.254Z,96453.41
2017-08-31T03:39:35.492Z,96444.75
2017-08-31T03:42:01.623Z,96426.49
2017-08-31T03:44:27.733Z,96433.78
2017-08-31T03:46:53.822Z,96445.59
2017-08-31T03:49:19.964Z,96456.67
2017-08-31T03:51:46.131Z,96461.64
2017-08-31T03:54:12.155Z,96458.89
2017-08-31T03:56:38.180Z,96449.81
2017-08-31T03:59:04.525Z,96445.70
2017-08-31T04:01:30.531Z,96456.57
2017-08-31T04:03:56.581Z,96461.22
2017-08-31T04:06:22.751Z,96466.56
2017-08-31T04:08:48.795Z,96469.87
2017-08-31T04:11:14.836Z,96467.13
2017-08-31T04:13:40.944Z,96474.94
2017-08-31T04:16:07.100Z,96478.91
2017-08-31T04:18:33.180Z,96481.27
2017-08-31T04:20:59.228Z,96491.26
2017-08-31T04:23:25.262Z,96499.48
2017-08-31T04:25:51.366Z,96503.41
2017-08-31T04:28:18.670Z,96503.83
2017-08-31T04:30:44.717Z,96513.59
2017-08-31T04:33:10.738Z,96524.75
2017-08-31T04:35:36.792Z,96527.02
2017-08-31T04:38:02.893Z,96527.34
2017-08-31T04:40:29.017Z,96534.16
2017-08-31T04:42:55.073Z,96542.39
2017-08-31T04:45:21.681Z,96541.30
2017-08-31T04:47:47.831Z,96543.52
2017-08-31T04:50:13.904Z,96550.72
2017-08-31T04:52:39.930Z,96556.11
2017-08-31T04:55:05.995Z,96554.32
2017-08-31T04:57:32.271Z,96563.39
2017-08-31T04:59:58.491Z,96565.66
2017-08-31T05:02:24.625Z,96561.83
2017-08-31T05:04:50.721Z,96564.02
2017-08-31T05:07:16.773Z,96564.66
2017-08-31T05:09:42.880Z,96570.35
2017-08-31T05:12:09.053Z,96573.76
2017-08-31T05:14:35.190Z,96574.18
2017-08-31T05:17:01.240Z,96579.95
2017-08-31T05:19:27.359Z,96575.84
2017-08-31T05:21:53.434Z,96578.30
2017-08-31T05:24:19.498Z,96588.42
2017-08-31T05:26:45.601Z,96589.84
2017-08-31T05:29:11.697Z,96599.77
2017-08-31T05:31:37.762Z,96605.55
2017-08-31T05:34:03.864Z,96614.20
2017-08-31T05:36:29.929Z,96625.60
2017-08-31T05:38:56.062Z,96623.66
2017-08-31T05:41:22.150Z,96622.44
2017-08-31T05:43:48.196Z,96630.91
2017-08-31T05:46:14.308Z,96639.70
2017-08-31T05:48:40.400Z,96633.33
2017-08-31T05:51:06.547Z,96635.31
2017-08-31T05:53:32.598Z,96641.93
2017-08-31T05:55:58.687Z,96649.50
2017-08-31T05:58:24.768Z,96659.11
2017-08-31T06:00:51.015Z,96665.20
2017-08-31T06:03:17.096Z,96653.47
2017-08-31T06:05:43.141Z,96669.38
2017-08-31T06:08:09.330Z,96666.20
2017-08-31T06:10:35.410Z,96664.31
2017-08-31T06:13:01.544Z,96668.42
2017-08-31T06:15:27.632Z,96673.06
2017-08-31T06:17:53.666Z,96684.05
2017-08-31T06:20:19.804Z,96693.65
2017-08-31T06:22:45.841Z,96685.02
2017-08-31T06:25:11.953Z,96699.70
2017-08-31T06:27:37.996Z,96705.61
2017-08-31T06:30:04.050Z,96697.38
2017-08-31T06:32:30.108Z,96689.25
2017-08-31T06:34:56.148Z,96687.88
2017-08-31T06:37:22.212Z,96684.31
2017-08-31T06:39:48.247Z,96684.41
2017-08-31T06:42:14.420Z,96700.22
2017-08-31T06:44:40.556Z,96701.30
2017-08-31T06:47:06.690Z,96708.03
2017-08-31T06:49:32.838Z,96710.38
2017-08-31T06:51:58.857Z,96711.33
2017-08-31T06:54:24.921Z,96722.31
2017-08-31T06:56:51.093Z,96721.88
2017-08-31T06:59:17.129Z,96735.19
2017-08-31T07:01:43.186Z,96742.47
2017-08-31T07:04:09.217Z,96733.81
2017-08-31T07:06:35.252Z,96731.30
2017-08-31T07:09:01.279Z,96729.51
2017-08-31T07:11:27.334Z,96732.54
2017-08-31T07:13:53.407Z,96729.38
2017-08-31T07:16:20.299Z,96735.42
2017-08-31T07:18:46.375Z,96735.94
2017-08-31T07:21:12.402Z,96745.55
2017-08-31T07:23:38.445Z,96753.78
2017-08-31T07:26:04.524Z,96765.18
2017-08-31T07:28:31.211Z,96764.33
2017-08-31T07:30:57.260Z,96768.58
2017-08-31T07:33:23.498Z,96780.80
2017-08-31T07:35:49.639Z,96780.38
2017-08-31T07:38:15.688Z,96796.97
2017-08-31T07:40:41.707Z,96803.70
2017-08-31T07:43:07.802Z,96819.22
2017-08-31T07:45:33.880Z,96806.87
2017-08-31T07:47:59.913Z,96796.97
2017-08-31T07:50:26.781Z,96796.16
2017-08-31T07:52:52.839Z,96803.12
2017-08-31T07:55:19.146Z,96811.77
2017-08-31T07:57:45.194Z,96819.35
2017-08-31T08:00:11.233Z,96813.02
2017-08-31T08:02:37.491Z,96817.13
2017-08-31T08:05:03.793Z,96830.13
2017-08-31T08:07:29.948Z,96816.84
2017-08-31T08:09:56.119Z,96829.74
2017-08-31T08:12:22.166Z,96827.39
2017-08-31T08:14:48.193Z,96826.02
2017-08-31T08:17:14.204Z,96819.30
2017-08-31T08:19:40.276Z,96830.41
2017-08-31T08:22:06.314Z,96853.46
2017-08-31T08:24:32.336Z,96879.95
2017-08-31T08:26:58.384Z,96904.94
2017-08-31T08:29:24.472Z,96910.04
2017-08-31T08:31:50.690Z,96902.75
2017-08-31T08:34:16.746Z,96889.13
2017-08-31T08:36:42.794Z,96895.99
2017-08-31T08:39:08.816Z,96893.91
2017-08-31T08:41:35.016Z,96905.73
2017-08-31T08:44:01.251Z,96890.22
2017-08-31T08:46:27.437Z,96884.01
2017-08-31T08:48:53.520Z,96901.84
2017-08-31T08:51:19.641Z,96925.06
2017-08-31T08:53:45.676Z,96938.23
2017-08-31T08:56:11.710Z,96942.25
2017-08-31T08:58:37.826Z,96930.95
2017-08-31T09:01:04.036Z,96925.17
2017-08-31T09:03:30.071Z,96927.39
2017-08-31T09:05:56.105Z,96947.97
2017-08-31T09:08:22.250Z,96951.95
2017-08-31T09:10:48.287Z,96949.21
2017-08-31T09:13:14.316Z,96938.36
2017-08-31T09:15:40.365Z,96941.11
2017-08-31T09:18:06.516Z,96937.42
2017-08-31T09:20:32.688Z,96944.67
2017-08-31T09:22:58.771Z,96944.67
2017-08-31T09:25:24.807Z,96958.81
2017-08-31T09:27:50.920Z,96953.33
2017-08-31T09:30:17.137Z,96949.63
2017-08-31T09:32:43.314Z,96939.08
2017-08-31T09:35:09.530Z,96943.30
2017-08-31T09:37:35.564Z,96948.39
2017-08-31T09:40:01.613Z,96942.91
2017-08-31T09:42:27.654Z,96938.79
2017-08-31T09:44:53.855Z,96940.55
2017-08-31T09:47:19.872Z,96945.52
2017-08-31T09:49:46.062Z,96951.01
2017-08-31T09:52:12.062Z,96954.70
2017-08-31T09:54:38.105Z,96962.41
2017-08-31T09:57:04.317Z,96963.52
2017-08-31T09:59:30.355Z,96957.52
2017-08-31T10:01:56.521Z,96957.09
2017-08-31T10:04:22.961Z,96955.36
2017-08-31T10:06:48.994Z,96964.08
2017-08-31T10:09:15.041Z,96962.52
2017-08-31T10:11:41.172Z,96967.34
2017-08-31T10:14:07.822Z,96966.88
2017-08-31T10:16:33.924Z,96977.73
2017-08-31T10:19:00.095Z,96982.56
2017-08-31T10:21:26.749Z,96990.27
2017-08-31T10:23:52.778Z,97008.20
2017-08-31T10:26:19.846Z,97010.43
2017-08-31T10:28:45.987Z,97011.80
2017-08-31T10:31:12.167Z,97015.49
2017-08-31T10:33:38.269Z,97011.67
2017-08-31T10:36:04.364Z,97014.61
2017-08-31T10:38:30.841Z,97011.08
2017-08-31T10:40:56.965Z,97012.91
2017-08-31T10:43:23.193Z,97031.66
2017-08-31T10:45:49.337Z,97042.16
2017-08-31T10:48:15.430Z,97050.87
2017-08-31T10:50:42.000Z,97052.31
2017-08-31T10:53:08.284Z,97051.30
2017-08-31T10:55:34.492Z,97053.91
2017-08-31T10:58:00.714Z,97057.08
2017-08-31T11:00:26.819Z,97057.47
2017-08-31T11:02:52.998Z,97053.25
2017-08-31T11:05:19.121Z,97058.61
2017-08-31T11:07:45.268Z,97064.40
2017-08-31T11:10:11.340Z,97072.17
2017-08-31T11:12:37.582Z,97074.49
2017-08-31T11:15:03.745Z,97077.04
2017-08-31T11:17:29.867Z,97081.16
2017-08-31T11:19:55.953Z,97077.66
2017-08-31T11:22:22.061Z,97075.20
2017-08-31T11:24:48.279Z,97082.78
2017-08-31T11:27:14.495Z,97091.74
2017-08-31T11:29:40.741Z,97090.17
2017-08-31T11:32:06.949Z,97086.11
2017-08-31T11:34:33.131Z,97092.42
2017-08-31T11:36:59.314Z,97087.85
2017-08-31T11:39:25.232Z,97087.98
2017-08-31T11:41:51.448Z,97084.91
2017-08-31T11:44:17.519Z,97094.77
2017-08-31T11:46:43.628Z,97104.12
2017-08-31T11:49:09.686Z,97103.59
2017-08-31T11:51:35.714Z,97105.48
2017-08-31T11:54:01.782Z,97107.52
2017-08-31T11:56:28.244Z,97105.67
2017-08-31T11:58:54.492Z,97108.48
2017-08-31T12:01:20.557Z,97116.62
2017-08-31T12:03:46.614Z,97123.28
2017-08-31T12:06:12.632Z,97119.89
2017-08-31T12:08:38.673Z,97120.34
2017-08-31T12:11:04.799Z,97127.10
2017-08-31T12:13:30.956Z,97129.55
2017-08-31T12:15:57.035Z,97135.33
2017-08-31T12:18:23.101Z,97146.41
2017-08-31T12:20:49.132Z,97153.39
2017-08-31T12:23:15.250Z,97152.66
2017-08-31T12:25:41.337Z,97147.12
2017-08-31T12:28:07.472Z,97149.92
2017-08-31T12:30:33.506Z,97151.56
2017-08-31T12:32:59.571Z,97150.92
2017-08-31T12:35:25.744Z,97156.85
2017-08-31T12:37:51.864Z,97156.50
2017-08-31T12:40:17.894Z,97153.95
2017-08-31T12:42:43.926Z,97157.52
2017-08-31T12:45:10.046Z,97157.89
2017-08-31T12:47:36.080Z,97163.75
2017-08-31T12:50:02.174Z,97163.09
2017-08-31T12:52:28.240Z,97158.88
2017-08-31T12:54:54.437Z,97156.53
2017-08-31T12:57:20.537Z,97155.06
2017-08-31T12:59:46.644Z,97156.44
2017-08-31T13:02:12.730Z,97155.49
2017-08-31T13:04:38.794Z,97155.36
2017-08-31T13:07:04.836Z,97153.14
2017-08-31T13:09:30.894Z,97156.22
2017-08-31T13:11:57.901Z,97157.88
2017-08-31T13:14:23.958Z,97155.23
2017-08-31T13:16:50.039Z,97161.14
2017-08-31T13:19:16.238Z,97158.95
2017-08-31T13:21:42.325Z,97164.02
2017-08-31T13:24:08.475Z,97167.06
2017-08-31T13:26:34.499Z,97167.88
2017-08-31T13:29:01.323Z,97164.48
2017-08-31T13:31:27.601Z,97164.81
2017-08-31T13:33:53.706Z,97167.43
2017-08-31T13:36:19.966Z,97175.23
2017-08-31T13:38:47.437Z,97171.77
2017-08-31T13:41:13.489Z,97170.30
2017-08-31T13:43:39.740Z,97174.29
2017-08-31T13:46:05.910Z,97176.09
2017-08-31T13:48:31.928Z,97176.09
2017-08-31T13:50:58.209Z,97175.66
2017-08-31T13:53:24.302Z,97172.39
2017-08-31T13:55:50.975Z,97165.20
2017-08-31T13:58:17.148Z,97165.63
2017-08-31T14:00:43.268Z,97165.69
2017-08-31T14:03:10.472Z,97169.97
2017-08-31T14:05:36.537Z,97170.47
2017-08-31T14:08:03.123Z,97173.21
2017-08-31T14:10:29.579Z,97167.86
2017-08-31T14:12:55.660Z,97168.93
2017-08-31T14:15:21.751Z,97164.39
2017-08-31T14:17:48.021Z,97165.63
2017-08-31T14:20:14.053Z,97160.44
2017-08-31T14:22:40.058Z,97156.33
2017-08-31T14:25:06.739Z,97155.38
2017-08-31T14:27:32.950Z,97162.79
2017-08-31T14:29:59.014Z,97158.55
2017-08-31T14:32:25.194Z,97172.27
2017-08-31T14:34:51.387Z,97161.06
2017-08-31T14:37:17.488Z,97168.22
2017-08-31T14:39:43.563Z,97171.48
2017-08-31T14:42:09.609Z,97180.14
2017-08-31T14:44:35.648Z,97183.02
2017-08-31T14:47:01.934Z,97176.91
2017-08-31T14:49:28.048Z,97176.25
2017-08-31T14:51:55.133Z,97177.92
2017-08-31T14:54:21.208Z,97165.70
2017-08-31T14:56:47.340Z,97175.44
2017-08-31T14:59:13.508Z,97174.88
2017-08-31T15:01:39.580Z,97169.17
2017-08-31T15:04:05.667Z,97169.69
2017-08-31T15:06:35.152Z,97170.12
2017-08-31T15:09:01.378Z,97167.50
2017-08-31T15:11:27.657Z,97165.58
2017-08-31T15:13:53.727Z,97164.20
2017-08-31T15:16:20.051Z,97167.80
2017-08-31T15:18:48.570Z,97174.16
2017-08-31T15:21:17.655Z,97171.32
2017-08-31T15:23:43.864Z,97174.36
2017-08-31T15:26:10.052Z,97167.67
2017-08-31T15:28:37.984Z,97174.86
2017-08-31T15:31:06.364Z,97169.47
2017-08-31T15:33:34.835Z,97177.41
2017-08-31T15:36:07.493Z,97179.20
2017-08-31T15:38:35.693Z,97179.07
2017-08-31T15:41:07.977Z,97178.30
2017-08-31T15:43:36.427Z,97180.64
2017-08-31T15:46:08.999Z,97187.73
2017-08-31T15:48:35.120Z,97192.27
2017-08-31T15:51:03.345Z,97191.00
2017-08-31T15:53:29.410Z,97190.47
2017-08-31T15:55:55.704Z,97189.53
2017-08-31T15:58:21.805Z,97178.97
2017-08-31T16:00:48.009Z,97173.06
2017-08-31T16:03:14.402Z,97171.98
2017-08-31T16:05:40.525Z,97175.25
2017-08-31T16:08:06.717Z,97175.16
2017-08-31T16:10:32.805Z,97167.88
2017-08-31T16:13:00.084Z,97171.04
2017-08-31T16:15:26.104Z,97170.61
2017-08-31T16:17:52.140Z,97170.91
2017-08-31T16:20:18.238Z,97172.51
2017-08-31T16:22:44.300Z,97173.78
2017-08-31T16:25:10.511Z,97169.02
2017-08-31T16:27:36.662Z,97168.79
2017-08-31T16:30:02.736Z,97174.19
2017-08-31T16:32:28.826Z,97179.77
2017-08-31T16:34:54.928Z,97179.44
2017-08-31T16:37:21.124Z,97184.73
2017-08-31T16:39:47.203Z,97189.67
2017-08-31T16:42:13.308Z,97189.28
2017-08-31T16:44:39.364Z,97190.23
2017-08-31T16:47:05.646Z,97185.98
2017-08-31T16:49:31.925Z,97189.02
2017-08-31T16:51:57.970Z,97186.70
2017-08-31T16:54:24.164Z,97187.78
2017-08-31T16:56:50.186Z,97187.35
2017-08-31T16:59:16.339Z,97184.52
2017-08-31T17:01:42.795Z,97188.63
2017-08-31T17:04:08.903Z,97196.86
2017-08-31T17:06:35.142Z,97195.59
2017-08-31T17:09:01.244Z,97193.79
2017-08-31T17:11:29.354Z,97196.53
2017-08-31T17:13:55.885Z,97196.95
2017-08-31T17:16:22.045Z,97182.13
2017-08-31T17:18:48.221Z,97168.94
2017-08-31T17:21:15.227Z,97177.34
2017-08-31T17:23:42.100Z,97175.13
2017-08-31T17:26:08.172Z,97181.77
2017-08-31T17:28:34.263Z,97188.63
2017-08-31T17:31:00.408Z,97191.67
2017-08-31T17:33:26.472Z,97203.59
2017-08-31T17:35:52.537Z,97200.20
2017-08-31T17:38:18.646Z,97205.62
2017-08-31T17:40:45.071Z,97198.45
2017-08-31T17:43:11.109Z,97202.35
2017-08-31T17:45:37.173Z,97210.69
2017-08-31T17:48:03.239Z,97219.94
2017-08-31T17:50:29.332Z,97220.36
2017-08-31T17:52:56.085Z,97224.70
2017-08-31T17:55:22.141Z,97233.27
2017-08-31T17:57:51.342Z,97236.11
2017-08-31T18:00:17.568Z,97232.28
2017-08-31T18:02:43.684Z,97229.74
2017-08-31T18:05:09.973Z,97237.25
2017-08-31T18:07:36.121Z,97237.13
2017-08-31T18:10:02.207Z,97244.06
2017-08-31T18:12:28.340Z,97238.48
2017-08-31T18:14:54.385Z,97238.87
2017-08-31T18:17:20.451Z,97236.77
2017-08-31T18:19:46.469Z,97236.25
2017-08-31T18:22:12.886Z,97245.73
2017-08-31T18:24:38.999Z,97254.81
2017-08-31T18:27:05.077Z,97258.94
2017-08-31T18:29:31.192Z,97252.92
2017-08-31T18:31:57.781Z,97260.31
2017-08-31T18:34:23.936Z,97262.11
2017-08-31T18:36:49.987Z,97263.70
2017-08-31T18:39:16.110Z,97264.84
2017-08-31T18:41:42.254Z,97267.17
2017-08-31T18:44:08.306Z,97272.83
2017-08-31T18:46:34.356Z,97275.57
2017-08-31T18:49:00.372Z,97273.11
2017-08-31T18:51:26.437Z,97270.78
2017-08-31T18:53:52.606Z,97267.81
2017-08-31T18:56:18.638Z,97266.88
2017-08-31T18:58:44.678Z,97255.81
2017-08-31T19:01:10.786Z,97255.47
2017-08-31T19:03:37.024Z,97257.04
2017-08-31T19:06:03.352Z,97262.53
2017-08-31T19:08:29.504Z,97245.08
2017-08-31T19:10:55.521Z,97245.51
2017-08-31T19:13:21.711Z,97251.34
2017-08-31T19:15:47.877Z,97244.27
2017-08-31T19:18:13.893Z,97245.93
2017-08-31T19:20:39.975Z,97253.22
2017-08-31T19:23:06.140Z,97263.77
2017-08-31T19:25:32.169Z,97263.83
2017-08-31T19:27:58.394Z,97258.08
2017-08-31T19:30:24.548Z,97258.64
2017-08-31T19:32:50.627Z,97252.92
2017-08-31T19:35:16.878Z,97254.04
2017-08-31T19:37:42.978Z,97246.23
2017-08-31T19:40:09.092Z,97241.16
2017-08-31T19:42:35.163Z,97237.57
2017-08-31T19:45:01.244Z,97238.52
2017-08-31T19:47:27.262Z,97235.67
2017-08-31T19:49:53.480Z,97241.69
2017-08-31T19:52:19.614Z,97241.59
2017-08-31T19:54:45.619Z,97242.11
2017-08-31T19:57:11.739Z,97235.77
2017-08-31T19:59:37.775Z,97235.77
2017-08-31T20:02:03.829Z,97233.75
2017-08-31T20:04:29.867Z,97239.23
2017-08-31T20:06:56.085Z,97239.23
2017-08-31T20:09:22.857Z,97241.98
2017-08-31T20:11:48.860Z,97247.30
2017-08-31T20:14:15.129Z,97250.57
2017-08-31T20:16:41.979Z,97241.39
2017-08-31T20:19:08.056Z,97235.73
2017-08-31T20:21:34.110Z,97237.27
2017-08-31T20:24:00.331Z,97242.47
2017-08-31T20:26:26.579Z,97251.84
2017-08-31T20:28:52.749Z,97257.20
2017-08-31T20:31:19.193Z,97258.71
2017-08-31T20:33:45.417Z,97253.73
2017-08-31T20:36:11.489Z,97263.22
2017-08-31T20:38:38.164Z,97264.59
2017-08-31T20:41:04.397Z,97255.54
2017-08-31T20:43:30.515Z,97257.69
2017-08-31T20:45:56.735Z,97266.31
2017-08-31T20:48:22.817Z,97273.08
2017-08-31T20:50:49.456Z,97269.69
2017-08-31T20:53:15.554Z,97267.89
2017-08-31T20:55:41.698Z,97276.55
2017-08-31T20:58:07.755Z,97276.84
2017-08-31T21:00:33.795Z,97265.45
2017-08-31T21:02:59.871Z,97265.45
2017-08-31T21:05:26.016Z,97259.95
2017-08-31T21:07:52.160Z,97268.19
2017-08-31T21:10:18.231Z,97264.92
2017-08-31T21:12:44.345Z,97270.94
2017-08-31T21:15:10.507Z,97275.91
2017-08-31T21:17:36.865Z,97275.91
2017-08-31T21:20:02.947Z,97275.05
2017-08-31T21:22:29.058Z,97271.88
2017-08-31T21:24:55.091Z,97256.27
2017-08-31T21:27:21.166Z,97256.27
2017-08-31T21:29:47.194Z,97248.45
2017-08-31T21:32:13.304Z,97252.44
2017-08-31T21:34:39.476Z,97258.34
2017-08-31T21:37:05.696Z,97260.01
2017-08-31T21:39:31.733Z,97262.41
2017-08-31T21:41:57.926Z,97270.64
2017-08-31T21:44:24.064Z,97273.91
2017-08-31T21:46:50.115Z,97280.37
2017-08-31T21:49:16.242Z,97272.23
2017-08-31T21:51:42.399Z,97276.05
2017-08-31T21:54:08.409Z,97274.68
2017-08-31T21:56:35.381Z,97277.00
2017-08-31T21:59:01.405Z,97271.51
2017-08-31T22:01:27.429Z,97269.54
2017-08-31T22:03:53.674Z,97272.80
2017-08-31T22:06:19.691Z,97269.67
2017-08-31T22:08:45.733Z,97261.95
2017-08-31T22:11:11.975Z,97257.97
2017-08-31T22:13:38.201Z,97254.80
2017-08-31T22:16:04.230Z,97257.55
2017-08-31T22:18:30.295Z,97247.38
2017-08-31T22:20:56.465Z,97242.87
2017-08-31T22:23:22.664Z,97247.94
2017-08-31T22:25:48.710Z,97244.34
2017-08-31T22:28:14.710Z,97241.59
2017-08-31T22:30:40.854Z,97237.91
2017-08-31T22:33:07.874Z,97250.38
2017-08-31T22:35:33.934Z,97251.33
2017-08-31T22:38:00.128Z,97253.65
2017-08-31T22:40:26.172Z,97252.70
2017-08-31T22:42:52.429Z,97253.78
2017-08-31T22:45:18.480Z,97245.55
2017-08-31T22:47:44.803Z,97244.27
2017-08-31T22:50:10.850Z,97243.19
2017-08-31T22:52:37.012Z,97250.05
2017-08-31T22:55:15.419Z,97250.05
2017-08-31T22:57:53.883Z,97251.13
2017-08-31T23:00:19.941Z,97249.75
2017-08-31T23:02:46.005Z,97243.94
2017-08-31T23:05:12.143Z,97241.74
2017-08-31T23:07:38.381Z,97236.91
2017-08-31T23:10:04.652Z,97240.47
2017-08-31T23:12:30.904Z,97241.84
2017-08-31T23:14:57.233Z,97234.55
2017-08-31T23:17:23.383Z,97240.04
2017-08-31T23:19:49.388Z,97240.17
2017-08-31T23:22:15.512Z,97241.84
2017-08-31T23:24:41.573Z,97231.94
2017-08-31T23:27:07.693Z,97233.86
2017-08-31T23:29:33.958Z,97224.26
2017-08-31T23:32:00.008Z,97219.71
2017-08-31T23:34:26.112Z,97219.42
2017-08-31T23:36:53.059Z,97215.30
2017-08-31T23:39:19.105Z,97219.42
2017-08-31T23:41:45.137Z,97212.23
2017-08-31T23:44:11.253Z,97207.16
2017-08-31T23:46:37.285Z,97212.78
2017-08-31T23:49:04.302Z,97209.19
2017-08-31T23:51:30.523Z,97204.64
2017-08-31T23:53:56.511Z,97202.33
2017-08-31T23:56:22.657Z,97202.23
2017-08-31T23:58:48.733Z,97200.86
